sensor_id;sensor_type;location;lat;lon;timestamp;pressure;altitude;pressure_sealevel;temperature
9119;BMP180;4594;50.994;7.126;2022-10-31T00:02:24;101162.00;;;17.40
9119;BMP180;4594;50.994;7.126;2022-10-31T00:04:49;101166.00;;;17.40
9119;BMP180;4594;50.994;7.126;2022-10-31T00:07:15;101166.00;;;17.40
9119;BMP180;4594;50.994;7.126;2022-10-31T00:09:40;101161.00;;;17.30
9119;BMP180;4594;50.994;7.126;2022-10-31T00:12:06;101161.00;;;17.30
9119;BMP180;4594;50.994;7.126;2022-10-31T00:14:32;101149.00;;;17.30
9119;BMP180;4594;50.994;7.126;2022-10-31T00:16:57;101162.00;;;17.30
9119;BMP180;4594;50.994;7.126;2022-10-31T00:19:23;101165.00;;;17.30
9119;BMP180;4594;50.994;7.126;2022-10-31T00:21:51;101154.00;;;17.20
9119;BMP180;4594;50.994;7.126;2022-10-31T00:24:17;101167.00;;;17.20
9119;BMP180;4594;50.994;7.126;2022-10-31T00:26:43;101174.00;;;17.20
9119;BMP180;4594;50.994;7.126;2022-10-31T00:29:09;101181.00;;;17.20
9119;BMP180;4594;50.994;7.126;2022-10-31T00:31:35;101175.00;;;17.20
9119;BMP180;4594;50.994;7.126;2022-10-31T00:34:01;101164.00;;;17.20
9119;BMP180;4594;50.994;7.126;2022-10-31T00:36:28;101154.00;;;17.20
9119;BMP180;4594;50.994;7.126;2022-10-31T00:38:54;101164.00;;;17.20
9119;BMP180;4594;50.994;7.126;2022-10-31T00:41:20;101167.00;;;17.20
9119;BMP180;4594;50.994;7.126;2022-10-31T00:43:46;101146.00;;;17.20
9119;BMP180;4594;50.994;7.126;2022-10-31T00:46:13;101154.00;;;17.20
9119;BMP180;4594;50.994;7.126;2022-10-31T00:48:39;101157.00;;;17.20
9119;BMP180;4594;50.994;7.126;2022-10-31T00:51:05;101164.00;;;17.20
9119;BMP180;4594;50.994;7.126;2022-10-31T00:53:30;101168.00;;;17.30
9119;BMP180;4594;50.994;7.126;2022-10-31T00:55:56;101186.00;;;17.30
9119;BMP180;4594;50.994;7.126;2022-10-31T00:58:22;101190.00;;;17.30
9119;BMP180;4594;50.994;7.126;2022-10-31T01:00:50;101195.00;;;17.40
9119;BMP180;4594;50.994;7.126;2022-10-31T01:03:25;101197.00;;;17.40
9119;BMP180;4594;50.994;7.126;2022-10-31T01:06:08;101203.00;;;17.50
9119;BMP180;4594;50.994;7.126;2022-10-31T01:08:36;101201.00;;;17.50
9119;BMP180;4594;50.994;7.126;2022-10-31T01:11:12;101199.00;;;17.50
9119;BMP180;4594;50.994;7.126;2022-10-31T01:13:38;101198.00;;;17.60
9119;BMP180;4594;50.994;7.126;2022-10-31T01:16:07;101193.00;;;17.60
9119;BMP180;4594;50.994;7.126;2022-10-31T01:18:34;101185.00;;;17.60
9119;BMP180;4594;50.994;7.126;2022-10-31T01:21:07;101153.00;;;17.60
9119;BMP180;4594;50.994;7.126;2022-10-31T01:23:34;101167.00;;;17.60
9119;BMP180;4594;50.994;7.126;2022-10-31T01:28:35;101165.00;;;17.70
9119;BMP180;4594;50.994;7.126;2022-10-31T01:31:05;101146.00;;;17.70
9119;BMP180;4594;50.994;7.126;2022-10-31T01:33:31;101152.00;;;17.70
9119;BMP180;4594;50.994;7.126;2022-10-31T01:35:57;101158.00;;;17.70
9119;BMP180;4594;50.994;7.126;2022-10-31T01:38:23;101150.00;;;17.70
9119;BMP180;4594;50.994;7.126;2022-10-31T01:40:49;101144.00;;;17.60
9119;BMP180;4594;50.994;7.126;2022-10-31T01:43:16;101130.00;;;17.60
9119;BMP180;4594;50.994;7.126;2022-10-31T01:45:46;101128.00;;;17.60
9119;BMP180;4594;50.994;7.126;2022-10-31T01:48:19;101139.00;;;17.60
9119;BMP180;4594;50.994;7.126;2022-10-31T01:50:48;101135.00;;;17.60
9119;BMP180;4594;50.994;7.126;2022-10-31T01:53:18;101134.00;;;17.60
9119;BMP180;4594;50.994;7.126;2022-10-31T01:55:45;101125.00;;;17.60
9119;BMP180;4594;50.994;7.126;2022-10-31T01:58:19;101116.00;;;17.60
9119;BMP180;4594;50.994;7.126;2022-10-31T02:00:51;101129.00;;;17.60
9119;BMP180;4594;50.994;7.126;2022-10-31T02:03:20;101117.00;;;17.60
9119;BMP180;4594;50.994;7.126;2022-10-31T02:05:46;101118.00;;;17.60
9119;BMP180;4594;50.994;7.126;2022-10-31T02:08:22;101124.00;;;17.60
9119;BMP180;4594;50.994;7.126;2022-10-31T02:10:49;101126.00;;;17.50
9119;BMP180;4594;50.994;7.126;2022-10-31T02:13:16;101120.00;;;17.50
9119;BMP180;4594;50.994;7.126;2022-10-31T02:15:47;101112.00;;;17.50
9119;BMP180;4594;50.994;7.126;2022-10-31T02:18:15;101102.00;;;17.50
9119;BMP180;4594;50.994;7.126;2022-10-31T02:21:10;101115.00;;;17.50
9119;BMP180;4594;50.994;7.126;2022-10-31T02:27:21;101127.00;;;17.40
9119;BMP180;4594;50.994;7.126;2022-10-31T02:30:23;101125.00;;;17.40
9119;BMP180;4594;50.994;7.126;2022-10-31T02:33:23;101130.00;;;17.40
9119;BMP180;4594;50.994;7.126;2022-10-31T02:39:02;101132.00;;;17.30
9119;BMP180;4594;50.994;7.126;2022-10-31T02:45:20;101135.00;;;17.30
9119;BMP180;4594;50.994;7.126;2022-10-31T02:47:33;101143.00;;;17.30
9119;BMP180;4594;50.994;7.126;2022-10-31T02:50:07;101130.00;;;17.30
9119;BMP180;4594;50.994;7.126;2022-10-31T02:52:35;101150.00;;;17.30
9119;BMP180;4594;50.994;7.126;2022-10-31T02:58:14;101141.00;;;17.20
9119;BMP180;4594;50.994;7.126;2022-10-31T03:06:55;101164.00;;;17.20
9119;BMP180;4594;50.994;7.126;2022-10-31T03:09:37;101160.00;;;17.20
9119;BMP180;4594;50.994;7.126;2022-10-31T03:12:40;101154.00;;;17.20
9119;BMP180;4594;50.994;7.126;2022-10-31T03:15:16;101139.00;;;17.20
9119;BMP180;4594;50.994;7.126;2022-10-31T03:18:32;101158.00;;;17.20
9119;BMP180;4594;50.994;7.126;2022-10-31T03:21:05;101149.00;;;17.20
9119;BMP180;4594;50.994;7.126;2022-10-31T03:23:37;101144.00;;;17.30
9119;BMP180;4594;50.994;7.126;2022-10-31T03:26:07;101140.00;;;17.30
9119;BMP180;4594;50.994;7.126;2022-10-31T03:28:47;101148.00;;;17.30
9119;BMP180;4594;50.994;7.126;2022-10-31T03:31:18;101152.00;;;17.40
9119;BMP180;4594;50.994;7.126;2022-10-31T03:33:47;101146.00;;;17.40
9119;BMP180;4594;50.994;7.126;2022-10-31T03:36:15;101140.00;;;17.40
9119;BMP180;4594;50.994;7.126;2022-10-31T03:38:45;101144.00;;;17.40
9119;BMP180;4594;50.994;7.126;2022-10-31T03:41:19;101139.00;;;17.40
9119;BMP180;4594;50.994;7.126;2022-10-31T03:44:03;101139.00;;;17.40
9119;BMP180;4594;50.994;7.126;2022-10-31T03:46:30;101130.00;;;17.40
9119;BMP180;4594;50.994;7.126;2022-10-31T03:48:57;101132.00;;;17.40
9119;BMP180;4594;50.994;7.126;2022-10-31T03:54:25;101132.00;;;17.40
9119;BMP180;4594;50.994;7.126;2022-10-31T03:57:27;101135.00;;;17.40
9119;BMP180;4594;50.994;7.126;2022-10-31T04:00:12;101131.00;;;17.40
9119;BMP180;4594;50.994;7.126;2022-10-31T04:02:45;101137.00;;;17.40
9119;BMP180;4594;50.994;7.126;2022-10-31T04:05:15;101143.00;;;17.30
9119;BMP180;4594;50.994;7.126;2022-10-31T04:07:47;101139.00;;;17.30
9119;BMP180;4594;50.994;7.126;2022-10-31T04:10:16;101138.00;;;17.30
9119;BMP180;4594;50.994;7.126;2022-10-31T04:12:48;101141.00;;;17.30
9119;BMP180;4594;50.994;7.126;2022-10-31T04:15:14;101131.00;;;17.30
9119;BMP180;4594;50.994;7.126;2022-10-31T04:17:44;101131.00;;;17.20
9119;BMP180;4594;50.994;7.126;2022-10-31T04:20:11;101133.00;;;17.20
9119;BMP180;4594;50.994;7.126;2022-10-31T04:22:36;101120.00;;;17.20
9119;BMP180;4594;50.994;7.126;2022-10-31T04:25:02;101138.00;;;17.10
9119;BMP180;4594;50.994;7.126;2022-10-31T04:27:28;101129.00;;;17.10
9119;BMP180;4594;50.994;7.126;2022-10-31T04:29:53;101123.00;;;17.10
9119;BMP180;4594;50.994;7.126;2022-10-31T04:32:19;101122.00;;;17.10
9119;BMP180;4594;50.994;7.126;2022-10-31T04:34:45;101125.00;;;17.10
9119;BMP180;4594;50.994;7.126;2022-10-31T04:37:10;101133.00;;;17.10
9119;BMP180;4594;50.994;7.126;2022-10-31T04:39:36;101128.00;;;17.00
9119;BMP180;4594;50.994;7.126;2022-10-31T04:42:01;101121.00;;;17.00
9119;BMP180;4594;50.994;7.126;2022-10-31T04:44:27;101133.00;;;17.00
9119;BMP180;4594;50.994;7.126;2022-10-31T04:46:53;101138.00;;;17.00
9119;BMP180;4594;50.994;7.126;2022-10-31T04:49:18;101114.00;;;17.00
9119;BMP180;4594;50.994;7.126;2022-10-31T04:51:44;101111.00;;;17.00
9119;BMP180;4594;50.994;7.126;2022-10-31T04:54:10;101108.00;;;17.00
9119;BMP180;4594;50.994;7.126;2022-10-31T04:56:35;101101.00;;;17.00
9119;BMP180;4594;50.994;7.126;2022-10-31T04:59:01;101099.00;;;17.00
9119;BMP180;4594;50.994;7.126;2022-10-31T05:01:27;101102.00;;;17.00
9119;BMP180;4594;50.994;7.126;2022-10-31T05:03:53;101102.00;;;17.00
9119;BMP180;4594;50.994;7.126;2022-10-31T05:06:18;101110.00;;;17.00
9119;BMP180;4594;50.994;7.126;2022-10-31T05:08:44;101109.00;;;17.00
9119;BMP180;4594;50.994;7.126;2022-10-31T05:11:10;101110.00;;;17.00
9119;BMP180;4594;50.994;7.126;2022-10-31T05:13:36;101105.00;;;17.00
9119;BMP180;4594;50.994;7.126;2022-10-31T05:16:02;101099.00;;;17.00
9119;BMP180;4594;50.994;7.126;2022-10-31T05:18:28;101093.00;;;17.00
9119;BMP180;4594;50.994;7.126;2022-10-31T05:20:54;101082.00;;;17.00
9119;BMP180;4594;50.994;7.126;2022-10-31T05:23:19;101093.00;;;17.00
9119;BMP180;4594;50.994;7.126;2022-10-31T05:25:45;101088.00;;;17.00
9119;BMP180;4594;50.994;7.126;2022-10-31T05:28:11;101079.00;;;17.00
9119;BMP180;4594;50.994;7.126;2022-10-31T05:30:37;101076.00;;;16.90
9119;BMP180;4594;50.994;7.126;2022-10-31T05:33:03;101087.00;;;16.90
9119;BMP180;4594;50.994;7.126;2022-10-31T05:35:31;101088.00;;;16.90
9119;BMP180;4594;50.994;7.126;2022-10-31T05:37:58;101092.00;;;16.90
9119;BMP180;4594;50.994;7.126;2022-10-31T05:40:26;101075.00;;;16.80
9119;BMP180;4594;50.994;7.126;2022-10-31T05:42:53;101077.00;;;16.80
9119;BMP180;4594;50.994;7.126;2022-10-31T05:45:21;101079.00;;;16.80
9119;BMP180;4594;50.994;7.126;2022-10-31T05:47:55;101087.00;;;16.70
9119;BMP180;4594;50.994;7.126;2022-10-31T05:50:23;101085.00;;;16.70
9119;BMP180;4594;50.994;7.126;2022-10-31T05:52:57;101085.00;;;16.70
9119;BMP180;4594;50.994;7.126;2022-10-31T05:55:23;101073.00;;;16.70
9119;BMP180;4594;50.994;7.126;2022-10-31T05:57:52;101071.00;;;16.70
9119;BMP180;4594;50.994;7.126;2022-10-31T06:00:18;101077.00;;;16.60
9119;BMP180;4594;50.994;7.126;2022-10-31T06:02:44;101057.00;;;16.60
9119;BMP180;4594;50.994;7.126;2022-10-31T06:05:10;101068.00;;;16.60
9119;BMP180;4594;50.994;7.126;2022-10-31T06:07:36;101063.00;;;16.70
9119;BMP180;4594;50.994;7.126;2022-10-31T06:10:05;101061.00;;;16.70
9119;BMP180;4594;50.994;7.126;2022-10-31T06:12:31;101061.00;;;16.70
9119;BMP180;4594;50.994;7.126;2022-10-31T06:14:57;101056.00;;;16.70
9119;BMP180;4594;50.994;7.126;2022-10-31T06:17:22;101064.00;;;16.70
9119;BMP180;4594;50.994;7.126;2022-10-31T06:19:48;101072.00;;;16.80
9119;BMP180;4594;50.994;7.126;2022-10-31T06:22:14;101065.00;;;16.80
9119;BMP180;4594;50.994;7.126;2022-10-31T06:24:40;101077.00;;;16.90
9119;BMP180;4594;50.994;7.126;2022-10-31T06:27:05;101074.00;;;16.90
9119;BMP180;4594;50.994;7.126;2022-10-31T06:29:31;101072.00;;;16.90
9119;BMP180;4594;50.994;7.126;2022-10-31T06:31:57;101079.00;;;17.00
9119;BMP180;4594;50.994;7.126;2022-10-31T06:34:23;101068.00;;;17.00
9119;BMP180;4594;50.994;7.126;2022-10-31T06:36:49;101068.00;;;17.00
9119;BMP180;4594;50.994;7.126;2022-10-31T06:39:15;101063.00;;;17.10
9119;BMP180;4594;50.994;7.126;2022-10-31T06:41:41;101059.00;;;17.20
9119;BMP180;4594;50.994;7.126;2022-10-31T06:44:07;101069.00;;;17.20
9119;BMP180;4594;50.994;7.126;2022-10-31T06:46:33;101082.00;;;17.20
9119;BMP180;4594;50.994;7.126;2022-10-31T06:48:59;101082.00;;;17.30
9119;BMP180;4594;50.994;7.126;2022-10-31T06:51:25;101080.00;;;17.30
9119;BMP180;4594;50.994;7.126;2022-10-31T06:53:51;101078.00;;;17.40
9119;BMP180;4594;50.994;7.126;2022-10-31T06:56:17;101084.00;;;17.40
9119;BMP180;4594;50.994;7.126;2022-10-31T06:58:42;101081.00;;;17.40
9119;BMP180;4594;50.994;7.126;2022-10-31T07:01:08;101070.00;;;17.50
9119;BMP180;4594;50.994;7.126;2022-10-31T07:03:34;101072.00;;;17.50
9119;BMP180;4594;50.994;7.126;2022-10-31T07:05:59;101066.00;;;17.60
9119;BMP180;4594;50.994;7.126;2022-10-31T07:08:26;101070.00;;;17.70
9119;BMP180;4594;50.994;7.126;2022-10-31T07:10:55;101072.00;;;17.80
9119;BMP180;4594;50.994;7.126;2022-10-31T07:13:22;101082.00;;;17.90
9119;BMP180;4594;50.994;7.126;2022-10-31T07:15:53;101085.00;;;18.00
9119;BMP180;4594;50.994;7.126;2022-10-31T07:18:19;101073.00;;;18.10
9119;BMP180;4594;50.994;7.126;2022-10-31T07:20:46;101069.00;;;18.20
9119;BMP180;4594;50.994;7.126;2022-10-31T07:23:12;101083.00;;;18.30
9119;BMP180;4594;50.994;7.126;2022-10-31T07:25:39;101067.00;;;18.40
9119;BMP180;4594;50.994;7.126;2022-10-31T07:28:06;101070.00;;;18.50
9119;BMP180;4594;50.994;7.126;2022-10-31T07:30:32;101065.00;;;18.60
9119;BMP180;4594;50.994;7.126;2022-10-31T07:32:58;101082.00;;;18.70
9119;BMP180;4594;50.994;7.126;2022-10-31T07:35:27;101076.00;;;18.80
9119;BMP180;4594;50.994;7.126;2022-10-31T07:37:54;101088.00;;;18.90
9119;BMP180;4594;50.994;7.126;2022-10-31T07:40:21;101090.00;;;19.00
9119;BMP180;4594;50.994;7.126;2022-10-31T07:42:50;101095.00;;;19.10
9119;BMP180;4594;50.994;7.126;2022-10-31T07:45:19;101094.00;;;19.20
9119;BMP180;4594;50.994;7.126;2022-10-31T07:47:51;101102.00;;;19.30
9119;BMP180;4594;50.994;7.126;2022-10-31T07:50:28;101103.00;;;19.40
9119;BMP180;4594;50.994;7.126;2022-10-31T07:53:10;101096.00;;;19.50
9119;BMP180;4594;50.994;7.126;2022-10-31T07:55:37;101082.00;;;19.60
9119;BMP180;4594;50.994;7.126;2022-10-31T07:58:10;101091.00;;;19.80
9119;BMP180;4594;50.994;7.126;2022-10-31T08:00:38;101106.00;;;19.90
9119;BMP180;4594;50.994;7.126;2022-10-31T08:03:07;101111.00;;;20.00
9119;BMP180;4594;50.994;7.126;2022-10-31T08:05:34;101115.00;;;20.20
9119;BMP180;4594;50.994;7.126;2022-10-31T08:08:01;101121.00;;;20.30
9119;BMP180;4594;50.994;7.126;2022-10-31T08:10:27;101129.00;;;20.40
9119;BMP180;4594;50.994;7.126;2022-10-31T08:13:05;101120.00;;;20.60
9119;BMP180;4594;50.994;7.126;2022-10-31T08:15:32;101121.00;;;20.70
9119;BMP180;4594;50.994;7.126;2022-10-31T08:17:59;101120.00;;;20.80
9119;BMP180;4594;50.994;7.126;2022-10-31T08:20:25;101118.00;;;20.90
9119;BMP180;4594;50.994;7.126;2022-10-31T08:23:03;101116.00;;;21.00
9119;BMP180;4594;50.994;7.126;2022-10-31T08:25:31;101111.00;;;21.20
9119;BMP180;4594;50.994;7.126;2022-10-31T08:27:58;101112.00;;;21.30
9119;BMP180;4594;50.994;7.126;2022-10-31T08:30:28;101104.00;;;21.40
9119;BMP180;4594;50.994;7.126;2022-10-31T08:33:04;101107.00;;;21.50
9119;BMP180;4594;50.994;7.126;2022-10-31T08:35:32;101091.00;;;21.60
9119;BMP180;4594;50.994;7.126;2022-10-31T08:37:59;101087.00;;;21.60
9119;BMP180;4594;50.994;7.126;2022-10-31T08:40:29;101083.00;;;21.70
9119;BMP180;4594;50.994;7.126;2022-10-31T08:43:08;101088.00;;;21.80
9119;BMP180;4594;50.994;7.126;2022-10-31T08:45:35;101081.00;;;21.90
9119;BMP180;4594;50.994;7.126;2022-10-31T08:48:06;101083.00;;;22.00
9119;BMP180;4594;50.994;7.126;2022-10-31T08:50:34;101077.00;;;22.10
9119;BMP180;4594;50.994;7.126;2022-10-31T08:53:10;101066.00;;;22.20
9119;BMP180;4594;50.994;7.126;2022-10-31T08:55:38;101074.00;;;22.20
9119;BMP180;4594;50.994;7.126;2022-10-31T08:58:07;101079.00;;;22.30
9119;BMP180;4594;50.994;7.126;2022-10-31T09:00:34;101062.00;;;22.30
9119;BMP180;4594;50.994;7.126;2022-10-31T09:03:06;101070.00;;;22.40
9119;BMP180;4594;50.994;7.126;2022-10-31T09:05:34;101065.00;;;22.40
9119;BMP180;4594;50.994;7.126;2022-10-31T09:08:03;101063.00;;;22.50
9119;BMP180;4594;50.994;7.126;2022-10-31T09:10:29;101064.00;;;22.50
9119;BMP180;4594;50.994;7.126;2022-10-31T09:13:05;101073.00;;;22.40
9119;BMP180;4594;50.994;7.126;2022-10-31T09:15:35;101069.00;;;22.40
9119;BMP180;4594;50.994;7.126;2022-10-31T09:18:01;101066.00;;;22.50
9119;BMP180;4594;50.994;7.126;2022-10-31T09:20:28;101067.00;;;22.50
9119;BMP180;4594;50.994;7.126;2022-10-31T09:23:03;101064.00;;;22.50
9119;BMP180;4594;50.994;7.126;2022-10-31T09:25:30;101066.00;;;22.60
9119;BMP180;4594;50.994;7.126;2022-10-31T09:28:00;101058.00;;;22.60
9119;BMP180;4594;50.994;7.126;2022-10-31T09:30:29;101054.00;;;22.70
9119;BMP180;4594;50.994;7.126;2022-10-31T09:33:00;101064.00;;;22.70
9119;BMP180;4594;50.994;7.126;2022-10-31T09:35:27;101050.00;;;22.80
9119;BMP180;4594;50.994;7.126;2022-10-31T09:38:01;101060.00;;;22.90
9119;BMP180;4594;50.994;7.126;2022-10-31T09:52:34;101033.00;;;24.00
9119;BMP180;4594;50.994;7.126;2022-10-31T09:55:45;101031.00;;;24.60
9119;BMP180;4594;50.994;7.126;2022-10-31T09:58:20;101022.00;;;25.40
9119;BMP180;4594;50.994;7.126;2022-10-31T10:00:47;101021.00;;;26.00
9119;BMP180;4594;50.994;7.126;2022-10-31T10:03:37;101012.00;;;26.70
9119;BMP180;4594;50.994;7.126;2022-10-31T10:06:14;101013.00;;;27.20
9119;BMP180;4594;50.994;7.126;2022-10-31T10:08:41;100998.00;;;27.80
9119;BMP180;4594;50.994;7.126;2022-10-31T10:17:36;101003.00;;;28.80
9119;BMP180;4594;50.994;7.126;2022-10-31T10:20:28;101004.00;;;28.80
9119;BMP180;4594;50.994;7.126;2022-10-31T10:23:39;101001.00;;;28.60
9119;BMP180;4594;50.994;7.126;2022-10-31T10:28:41;101001.00;;;28.00
9119;BMP180;4594;50.994;7.126;2022-10-31T10:31:16;101004.00;;;27.70
9119;BMP180;4594;50.994;7.126;2022-10-31T10:36:51;100983.00;;;27.20
9119;BMP180;4594;50.994;7.126;2022-10-31T10:39:43;100977.00;;;27.00
9119;BMP180;4594;50.994;7.126;2022-10-31T10:42:15;100984.00;;;26.80
9119;BMP180;4594;50.994;7.126;2022-10-31T10:45:13;100974.00;;;26.60
9119;BMP180;4594;50.994;7.126;2022-10-31T10:50:52;100971.00;;;26.30
9119;BMP180;4594;50.994;7.126;2022-10-31T10:56:25;100958.00;;;26.10
9119;BMP180;4594;50.994;7.126;2022-10-31T10:58:57;100952.00;;;26.00
9119;BMP180;4594;50.994;7.126;2022-10-31T11:01:23;100958.00;;;26.00
9119;BMP180;4594;50.994;7.126;2022-10-31T11:03:48;100951.00;;;26.00
9119;BMP180;4594;50.994;7.126;2022-10-31T11:06:20;100941.00;;;26.00
9119;BMP180;4594;50.994;7.126;2022-10-31T11:08:50;100935.00;;;26.00
9119;BMP180;4594;50.994;7.126;2022-10-31T11:11:32;100940.00;;;26.00
9119;BMP180;4594;50.994;7.126;2022-10-31T11:14:05;100939.00;;;26.00
9119;BMP180;4594;50.994;7.126;2022-10-31T11:16:41;100937.00;;;26.00
9119;BMP180;4594;50.994;7.126;2022-10-31T11:19:18;100937.00;;;26.00
9119;BMP180;4594;50.994;7.126;2022-10-31T11:21:46;100940.00;;;26.00
9119;BMP180;4594;50.994;7.126;2022-10-31T11:24:25;100929.00;;;26.00
9119;BMP180;4594;50.994;7.126;2022-10-31T11:27:13;100923.00;;;26.00
9119;BMP180;4594;50.994;7.126;2022-10-31T11:29:39;100917.00;;;26.00
9119;BMP180;4594;50.994;7.126;2022-10-31T11:32:05;100908.00;;;25.90
9119;BMP180;4594;50.994;7.126;2022-10-31T11:34:42;100908.00;;;25.90
9119;BMP180;4594;50.994;7.126;2022-10-31T11:37:30;100907.00;;;25.90
9119;BMP180;4594;50.994;7.126;2022-10-31T11:40:02;100902.00;;;25.90
9119;BMP180;4594;50.994;7.126;2022-10-31T11:42:38;100907.00;;;25.90
9119;BMP180;4594;50.994;7.126;2022-10-31T11:45:18;100900.00;;;25.90
9119;BMP180;4594;50.994;7.126;2022-10-31T11:47:49;100899.00;;;25.90
9119;BMP180;4594;50.994;7.126;2022-10-31T11:50:27;100889.00;;;25.90
9119;BMP180;4594;50.994;7.126;2022-10-31T11:52:54;100882.00;;;25.80
9119;BMP180;4594;50.994;7.126;2022-10-31T11:55:33;100889.00;;;25.80
9119;BMP180;4594;50.994;7.126;2022-10-31T11:57:59;100877.00;;;25.70
9119;BMP180;4594;50.994;7.126;2022-10-31T12:00:38;100876.00;;;25.70
9119;BMP180;4594;50.994;7.126;2022-10-31T12:05:55;100865.00;;;25.70
9119;BMP180;4594;50.994;7.126;2022-10-31T12:08:30;100862.00;;;25.60
9119;BMP180;4594;50.994;7.126;2022-10-31T12:14:06;100862.00;;;25.50
9119;BMP180;4594;50.994;7.126;2022-10-31T12:17:06;100850.00;;;25.40
9119;BMP180;4594;50.994;7.126;2022-10-31T12:20:05;100848.00;;;25.40
9119;BMP180;4594;50.994;7.126;2022-10-31T12:28:43;100844.00;;;25.30
9119;BMP180;4594;50.994;7.126;2022-10-31T12:34:40;100818.00;;;25.20
9119;BMP180;4594;50.994;7.126;2022-10-31T12:40:15;100809.00;;;25.20
9119;BMP180;4594;50.994;7.126;2022-10-31T12:43:04;100803.00;;;25.30
9119;BMP180;4594;50.994;7.126;2022-10-31T12:45:49;100796.00;;;25.30
9119;BMP180;4594;50.994;7.126;2022-10-31T12:56:47;100773.00;;;25.30
9119;BMP180;4594;50.994;7.126;2022-10-31T12:59:41;100775.00;;;25.30
9119;BMP180;4594;50.994;7.126;2022-10-31T13:05:43;100753.00;;;25.30
9119;BMP180;4594;50.994;7.126;2022-10-31T13:08:17;100747.00;;;25.30
9119;BMP180;4594;50.994;7.126;2022-10-31T13:11:43;100749.00;;;25.30
9119;BMP180;4594;50.994;7.126;2022-10-31T13:14:28;100732.00;;;25.40
9119;BMP180;4594;50.994;7.126;2022-10-31T13:16:56;100725.00;;;25.40
9119;BMP180;4594;50.994;7.126;2022-10-31T13:19:41;100717.00;;;25.40
9119;BMP180;4594;50.994;7.126;2022-10-31T13:22:22;100714.00;;;25.30
9119;BMP180;4594;50.994;7.126;2022-10-31T13:24:55;100714.00;;;25.40
9119;BMP180;4594;50.994;7.126;2022-10-31T13:27:26;100705.00;;;25.40
9119;BMP180;4594;50.994;7.126;2022-10-31T13:35:51;100687.00;;;25.30
9119;BMP180;4594;50.994;7.126;2022-10-31T13:38:40;100685.00;;;25.40
9119;BMP180;4594;50.994;7.126;2022-10-31T13:41:46;100689.00;;;25.30
9119;BMP180;4594;50.994;7.126;2022-10-31T13:44:29;100685.00;;;25.40
9119;BMP180;4594;50.994;7.126;2022-10-31T13:47:00;100681.00;;;25.40
9119;BMP180;4594;50.994;7.126;2022-10-31T13:57:43;100683.00;;;25.40
9119;BMP180;4594;50.994;7.126;2022-10-31T14:00:23;100676.00;;;25.40
9119;BMP180;4594;50.994;7.126;2022-10-31T14:02:53;100677.00;;;25.40
9119;BMP180;4594;50.994;7.126;2022-10-31T14:05:32;100674.00;;;25.40
9119;BMP180;4594;50.994;7.126;2022-10-31T14:08:02;100676.00;;;25.40
9119;BMP180;4594;50.994;7.126;2022-10-31T14:10:36;100669.00;;;25.30
9119;BMP180;4594;50.994;7.126;2022-10-31T14:15:42;100659.00;;;25.30
9119;BMP180;4594;50.994;7.126;2022-10-31T14:18:39;100644.00;;;25.20
9119;BMP180;4594;50.994;7.126;2022-10-31T14:23:52;100636.00;;;25.10
9119;BMP180;4594;50.994;7.126;2022-10-31T14:26:32;100611.00;;;25.10
9119;BMP180;4594;50.994;7.126;2022-10-31T14:29:20;100612.00;;;25.00
9119;BMP180;4594;50.994;7.126;2022-10-31T14:34:41;100602.00;;;24.90
9119;BMP180;4594;50.994;7.126;2022-10-31T14:45:34;100597.00;;;24.80
9119;BMP180;4594;50.994;7.126;2022-10-31T14:49:12;100600.00;;;24.80
9119;BMP180;4594;50.994;7.126;2022-10-31T14:51:20;100601.00;;;24.80
9119;BMP180;4594;50.994;7.126;2022-10-31T14:53:56;100588.00;;;24.70
9119;BMP180;4594;50.994;7.126;2022-10-31T14:56:32;100595.00;;;24.70
9119;BMP180;4594;50.994;7.126;2022-10-31T14:59:08;100572.00;;;24.70
9119;BMP180;4594;50.994;7.126;2022-10-31T15:01:36;100576.00;;;24.70
9119;BMP180;4594;50.994;7.126;2022-10-31T15:04:16;100575.00;;;24.60
9119;BMP180;4594;50.994;7.126;2022-10-31T15:06:53;100576.00;;;24.60
9119;BMP180;4594;50.994;7.126;2022-10-31T15:09:30;100574.00;;;24.60
9119;BMP180;4594;50.994;7.126;2022-10-31T15:11:59;100564.00;;;24.60
9119;BMP180;4594;50.994;7.126;2022-10-31T15:14:29;100562.00;;;24.60
9119;BMP180;4594;50.994;7.126;2022-10-31T15:16:58;100557.00;;;24.50
9119;BMP180;4594;50.994;7.126;2022-10-31T15:19:28;100560.00;;;24.50
9119;BMP180;4594;50.994;7.126;2022-10-31T15:21:56;100556.00;;;24.40
9119;BMP180;4594;50.994;7.126;2022-10-31T15:24:30;100540.00;;;24.40
9119;BMP180;4594;50.994;7.126;2022-10-31T15:26:58;100560.00;;;24.40
9119;BMP180;4594;50.994;7.126;2022-10-31T15:29:26;100530.00;;;24.40
9119;BMP180;4594;50.994;7.126;2022-10-31T15:31:55;100522.00;;;24.30
9119;BMP180;4594;50.994;7.126;2022-10-31T15:34:36;100533.00;;;24.30
9119;BMP180;4594;50.994;7.126;2022-10-31T15:37:04;100513.00;;;24.30
9119;BMP180;4594;50.994;7.126;2022-10-31T15:39:29;100513.00;;;24.20
9119;BMP180;4594;50.994;7.126;2022-10-31T15:41:58;100499.00;;;24.20
9119;BMP180;4594;50.994;7.126;2022-10-31T15:44:35;100504.00;;;24.10
9119;BMP180;4594;50.994;7.126;2022-10-31T15:47:14;100486.00;;;24.00
9119;BMP180;4594;50.994;7.126;2022-10-31T15:49:50;100499.00;;;24.00
9119;BMP180;4594;50.994;7.126;2022-10-31T15:54:55;100503.00;;;23.80
9119;BMP180;4594;50.994;7.126;2022-10-31T15:57:24;100501.00;;;23.80
9119;BMP180;4594;50.994;7.126;2022-10-31T15:59:51;100502.00;;;23.70
9119;BMP180;4594;50.994;7.126;2022-10-31T16:02:23;100494.00;;;23.70
9119;BMP180;4594;50.994;7.126;2022-10-31T16:05:00;100500.00;;;23.60
9119;BMP180;4594;50.994;7.126;2022-10-31T16:07:28;100489.00;;;23.50
9119;BMP180;4594;50.994;7.126;2022-10-31T16:10:00;100499.00;;;23.50
9119;BMP180;4594;50.994;7.126;2022-10-31T16:12:37;100492.00;;;23.40
9119;BMP180;4594;50.994;7.126;2022-10-31T16:15:05;100490.00;;;23.30
9119;BMP180;4594;50.994;7.126;2022-10-31T16:17:32;100495.00;;;23.20
9119;BMP180;4594;50.994;7.126;2022-10-31T16:20:04;100480.00;;;23.20
9119;BMP180;4594;50.994;7.126;2022-10-31T16:22:36;100486.00;;;23.20
9119;BMP180;4594;50.994;7.126;2022-10-31T16:25:15;100483.00;;;23.20
9119;BMP180;4594;50.994;7.126;2022-10-31T16:27:51;100490.00;;;23.10
9119;BMP180;4594;50.994;7.126;2022-10-31T16:30:47;100501.00;;;23.00
9119;BMP180;4594;50.994;7.126;2022-10-31T16:33:32;100489.00;;;23.00
9119;BMP180;4594;50.994;7.126;2022-10-31T16:36:00;100483.00;;;22.90
9119;BMP180;4594;50.994;7.126;2022-10-31T16:38:28;100490.00;;;22.90
9119;BMP180;4594;50.994;7.126;2022-10-31T16:40:54;100484.00;;;22.90
9119;BMP180;4594;50.994;7.126;2022-10-31T16:43:22;100481.00;;;22.90
9119;BMP180;4594;50.994;7.126;2022-10-31T16:45:51;100495.00;;;22.90
9119;BMP180;4594;50.994;7.126;2022-10-31T16:48:20;100465.00;;;22.80